Time;durP1;ratioP1;P1;durP2;ratioP2;P2;SDS_P1;SDS_P2;PMS_P1;PMS_P2;Temp;Humidity;BMP_temperature;BMP_pressure;BME280_temperature;BME280_humidity;BME280_pressure;Samples;Min_cycle;Max_cycle;Signal;HPM_P1;HPM_P2
2023/05/03 00:00:28;;;;;;;;;;;;;;;7.46;47.42;99986.69;5122103;27;20028;-77
2023/05/03 00:02:56;;;;;;;;;;;;;;;7.40;47.37;99983.06;5112663;27;19923;-77
2023/05/03 00:05:21;;;;;;;;;;;;;;;7.36;47.76;99981.91;5079218;28;19980;-77
2023/05/03 00:07:47;;;;;;;;;;;;;;;7.32;47.75;99980.75;5092461;28;19927;-78
2023/05/03 00:10:15;;;;;;;;;;;;;;;7.30;47.86;99993.78;5112355;27;19930;-77
2023/05/03 00:12:42;;;;;;;;;;;;;;;7.31;47.87;99985.38;5072125;28;19931;-77
2023/05/03 00:15:09;;;;;;;;;;;;;;;7.33;47.69;99982.41;5102636;28;19938;-78
2023/05/03 00:17:35;;;;;;;;;;;;;;;7.32;47.58;99978.88;5087100;28;19924;-77
2023/05/03 00:20:03;;;;;;;;;;;;;;;7.30;47.78;99978.28;5069743;28;19953;-77
2023/05/03 00:22:29;;;;;;;;;;;;;;;7.30;47.68;99972.03;5079600;27;20033;-77
2023/05/03 00:24:55;;;;;;;;;;;;;;;7.31;47.80;99970.94;5091439;28;19924;-76
2023/05/03 00:27:22;;;;;;;;;;;;;;;7.29;47.81;99968.50;5094697;28;19953;-73
2023/05/03 00:29:51;;;;;;;;;;;;;;;7.26;48.02;99965.44;5096297;27;20385;-74
2023/05/03 00:32:17;;;;;;;;;;;;;;;7.27;47.88;99965.19;5092687;27;19999;-74
2023/05/03 00:34:43;;;;;;;;;;;;;;;7.27;48.07;99953.47;5110674;27;19959;-74
2023/05/03 00:37:09;;;;;;;;;;;;;;;7.27;48.19;99950.75;5065369;27;19933;-74
2023/05/03 00:39:35;;;;;;;;;;;;;;;7.24;48.04;99961.06;5113443;27;19930;-75
2023/05/03 00:42:02;;;;;;;;;;;;;;;7.22;48.55;99954.22;5091470;27;19934;-73
2023/05/03 00:44:28;;;;;;;;;;;;;;;7.21;48.33;99941.69;5096624;27;19927;-73
2023/05/03 00:46:56;;;;;;;;;;;;;;;7.18;48.56;99958.53;5114142;27;20419;-73
2023/05/03 00:49:23;;;;;;;;;;;;;;;7.14;48.52;99950.03;5094800;27;19927;-73
2023/05/03 00:51:49;;;;;;;;;;;;;;;7.12;48.72;99945.94;5113138;27;19949;-73
2023/05/03 00:54:15;;;;;;;;;;;;;;;7.13;48.85;99942.13;5109767;27;19931;-74
2023/05/03 00:56:41;;;;;;;;;;;;;;;7.12;48.85;99946.72;5078649;27;19934;-73
2023/05/03 00:59:07;;;;;;;;;;;;;;;7.09;48.95;99937.16;5080701;28;20303;-73
2023/05/03 01:01:33;;;;;;;;;;;;;;;7.05;49.39;99925.16;5088780;27;19923;-73
2023/05/03 01:04:01;;;;;;;;;;;;;;;7.01;49.17;99924.00;5078864;28;20337;-73
2023/05/03 01:06:31;;;;;;;;;;;;;;;6.96;49.40;99932.09;5114587;27;19923;-73
2023/05/03 01:09:00;;;;;;;;;;;;;;;6.91;49.74;99932.81;5077347;27;19935;-73
2023/05/03 01:11:29;;;;;;;;;;;;;;;6.89;49.74;99920.53;5090872;27;19930;-73
2023/05/03 01:13:56;;;;;;;;;;;;;;;6.78;49.96;99912.22;5093794;27;19923;-73
2023/05/03 01:16:25;;;;;;;;;;;;;;;6.85;50.19;99909.34;5066552;28;19927;-73
2023/05/03 01:18:53;;;;;;;;;;;;;;;6.85;50.30;99898.47;5094184;28;19927;-73
2023/05/03 01:21:21;;;;;;;;;;;;;;;6.88;50.09;99897.16;5112299;27;19923;-73
2023/05/03 01:23:53;;;;;;;;;;;;;;;6.88;50.28;99895.28;5114171;27;20309;-73
2023/05/03 01:26:21;;;;;;;;;;;;;;;6.87;50.29;99903.66;5099385;28;19930;-75
2023/05/03 01:28:47;;;;;;;;;;;;;;;6.86;50.45;99910.97;5100309;28;20357;-73
2023/05/03 01:31:15;;;;;;;;;;;;;;;6.88;50.29;99914.31;5111489;28;20026;-73
2023/05/03 01:33:46;;;;;;;;;;;;;;;6.90;50.14;99914.88;5065597;28;20030;-73
2023/05/03 01:36:19;;;;;;;;;;;;;;;6.93;50.11;99914.38;5098676;28;19923;-73
2023/05/03 01:38:45;;;;;;;;;;;;;;;6.96;49.94;99913.06;5073112;28;19923;-73
2023/05/03 01:41:13;;;;;;;;;;;;;;;6.97;50.03;99909.28;5086559;28;19924;-73
2023/05/03 01:43:42;;;;;;;;;;;;;;;6.95;50.00;99893.19;5092019;28;19923;-73
2023/05/03 01:46:08;;;;;;;;;;;;;;;6.96;50.25;99899.47;5074212;28;19927;-76
2023/05/03 01:48:34;;;;;;;;;;;;;;;7.00;49.93;99894.34;5074913;28;19931;-76
2023/05/03 01:51:02;;;;;;;;;;;;;;;7.05;49.78;99908.03;5097058;28;19923;-77
2023/05/03 01:53:27;;;;;;;;;;;;;;;7.07;49.67;99895.00;5092442;28;20371;-76
2023/05/03 01:55:53;;;;;;;;;;;;;;;7.09;49.75;99880.06;5091915;28;19924;-76
2023/05/03 01:58:20;;;;;;;;;;;;;;;7.14;49.57;99883.97;5090238;28;19930;-75
2023/05/03 02:00:47;;;;;;;;;;;;;;;7.22;49.22;99883.50;5070984;28;19928;-76
2023/05/03 02:03:13;;;;;;;;;;;;;;;7.27;49.31;99899.94;5097554;28;19923;-76
2023/05/03 02:05:40;;;;;;;;;;;;;;;7.29;49.02;99883.34;5094431;28;19923;-76
2023/05/03 02:08:06;;;;;;;;;;;;;;;7.29;49.32;99877.91;5070749;28;20322;-76
2023/05/03 02:10:33;;;;;;;;;;;;;;;7.30;49.11;99880.38;5076366;28;19924;-76
2023/05/03 02:12:59;;;;;;;;;;;;;;;7.32;49.00;99867.34;5090179;28;19930;-77
2023/05/03 02:15:25;;;;;;;;;;;;;;;7.36;49.04;99875.84;5082294;28;20377;-77
2023/05/03 02:17:53;;;;;;;;;;;;;;;7.40;48.81;99878.84;5102476;28;19967;-74
2023/05/03 02:20:20;;;;;;;;;;;;;;;7.46;48.56;99875.13;5084337;28;19928;-77
2023/05/03 02:22:46;;;;;;;;;;;;;;;7.52;48.42;99869.50;5090428;28;20034;-76
2023/05/03 02:25:12;;;;;;;;;;;;;;;7.60;48.00;99881.03;5097960;28;19923;-76
2023/05/03 02:27:39;;;;;;;;;;;;;;;7.65;47.98;99884.63;5094508;28;19923;-76
2023/05/03 02:30:06;;;;;;;;;;;;;;;7.68;48.01;99893.34;5072863;28;20271;-76
2023/05/03 02:32:38;;;;;;;;;;;;;;;7.69;48.08;99881.41;5068663;28;20408;-76
2023/05/03 02:35:08;;;;;;;;;;;;;;;7.71;47.88;99881.97;5076140;28;19924;-76
2023/05/03 02:37:34;;;;;;;;;;;;;;;7.76;47.88;99871.97;5084738;28;20401;-76
2023/05/03 02:40:06;;;;;;;;;;;;;;;7.80;47.84;99869.56;5070424;28;20031;-75
2023/05/03 02:42:31;;;;;;;;;;;;;;;7.82;47.87;99869.31;5066065;28;19977;-77
2023/05/03 02:44:58;;;;;;;;;;;;;;;7.83;47.84;99879.13;5069913;28;19924;-76
2023/05/03 02:47:25;;;;;;;;;;;;;;;7.84;47.87;99867.97;5088579;28;19931;-76
2023/05/03 02:49:51;;;;;;;;;;;;;;;7.85;47.87;99874.25;5074935;28;19923;-77
2023/05/03 02:52:18;;;;;;;;;;;;;;;7.87;47.94;99875.63;5077331;28;19927;-77
2023/05/03 02:54:46;;;;;;;;;;;;;;;7.89;47.93;99870.78;5073807;28;19951;-76
2023/05/03 02:57:11;;;;;;;;;;;;;;;7.91;47.88;99875.94;5075406;28;19924;-76
2023/05/03 02:59:38;;;;;;;;;;;;;;;7.95;47.81;99871.63;5076924;28;19930;-76
2023/05/03 03:02:04;;;;;;;;;;;;;;;7.95;47.63;99871.63;5071600;28;19986;-76
2023/05/03 03:04:35;;;;;;;;;;;;;;;7.94;47.84;99880.88;5088155;28;19928;-76
2023/05/03 03:07:01;;;;;;;;;;;;;;;7.95;47.91;99871.63;5063368;28;20350;-76
2023/05/03 03:09:28;;;;;;;;;;;;;;;8.00;47.65;99876.31;5072073;28;19925;-77
2023/05/03 03:11:54;;;;;;;;;;;;;;;8.05;47.71;99866.28;5072751;28;20026;-78
2023/05/03 03:14:21;;;;;;;;;;;;;;;8.10;47.52;99870.97;5060158;28;19923;-77
2023/05/03 03:16:49;;;;;;;;;;;;;;;8.15;47.32;99868.28;5074277;28;19970;-77
2023/05/03 03:19:15;;;;;;;;;;;;;;;8.21;47.17;99874.63;5074999;28;20378;-76
2023/05/03 03:21:41;;;;;;;;;;;;;;;8.25;47.44;99870.28;5075227;28;19924;-76
2023/05/03 03:24:08;;;;;;;;;;;;;;;8.28;47.16;99879.88;5056011;28;19928;-77
2023/05/03 03:26:35;;;;;;;;;;;;;;;8.33;47.30;99875.28;5072942;28;19970;-77
2023/05/03 03:29:01;;;;;;;;;;;;;;;8.39;46.94;99870.72;5081491;28;19928;-77
2023/05/03 03:31:27;;;;;;;;;;;;;;;8.42;46.93;99870.19;5076882;28;20063;-76
2023/05/03 03:33:55;;;;;;;;;;;;;;;8.44;46.86;99869.94;5081425;27;19954;-75
2023/05/03 03:36:26;;;;;;;;;;;;;;;8.45;46.91;99877.84;5078816;27;19923;-77
2023/05/03 03:38:52;;;;;;;;;;;;;;;8.47;46.79;99866.69;5076850;27;20551;-76
2023/05/03 03:41:19;;;;;;;;;;;;;;;8.54;46.66;99872.78;5080936;28;20021;-76
2023/05/03 03:43:47;;;;;;;;;;;;;;;8.58;46.57;99876.63;5096890;27;20022;-74
2023/05/03 03:46:17;;;;;;;;;;;;;;;8.64;46.27;99869.31;5097101;27;19976;-73
2023/05/03 03:48:43;;;;;;;;;;;;;;;8.69;46.21;99879.44;5112531;27;20409;-73
2023/05/03 03:51:08;;;;;;;;;;;;;;;8.71;46.22;99874.53;5084121;27;19924;-73
2023/05/03 03:53:41;;;;;;;;;;;;;;;8.75;45.97;99886.59;5114126;27;20318;-73
2023/05/03 03:56:07;;;;;;;;;;;;;;;8.74;45.66;99888.47;5094051;27;20376;-73
2023/05/03 03:58:33;;;;;;;;;;;;;;;8.76;45.84;99886.31;5076522;27;20339;-73
2023/05/03 04:01:02;;;;;;;;;;;;;;;8.76;46.01;99888.22;5081977;28;19924;-73
2023/05/03 04:03:29;;;;;;;;;;;;;;;8.67;45.82;99884.34;5075724;28;19949;-73
2023/05/03 04:05:55;;;;;;;;;;;;;;;8.75;45.93;99894.78;5098005;27;20416;-73
2023/05/03 04:08:21;;;;;;;;;;;;;;;8.75;45.82;99892.03;5097815;27;20014;-73
2023/05/03 04:10:48;;;;;;;;;;;;;;;8.75;45.93;99900.22;5060079;28;19923;-73
2023/05/03 04:13:14;;;;;;;;;;;;;;;8.74;46.19;99893.94;5092788;27;20416;-73
2023/05/03 04:15:40;;;;;;;;;;;;;;;8.75;46.40;99889.31;5097182;27;19957;-74
2023/05/03 04:18:07;;;;;;;;;;;;;;;8.79;46.59;99884.97;5093799;27;19924;-73
2023/05/03 04:20:36;;;;;;;;;;;;;;;8.79;46.83;99899.41;5098612;27;19923;-73
2023/05/03 04:23:03;;;;;;;;;;;;;;;8.78;47.32;99908.69;5083220;27;19923;-74
2023/05/03 04:25:30;;;;;;;;;;;;;;;8.77;47.22;99895.31;5080247;27;20375;-78
2023/05/03 04:28:05;;;;;;;;;;;;;;;8.77;47.30;99890.69;5101811;27;19924;-78
2023/05/03 04:30:33;;;;;;;;;;;;;;;8.81;47.39;99891.00;5086304;28;19932;-77
2023/05/03 04:33:03;;;;;;;;;;;;;;;8.80;47.56;99886.63;5073305;27;19924;-76
2023/05/03 04:35:33;;;;;;;;;;;;;;;8.83;47.71;99888.81;5081090;27;19923;-76
2023/05/03 04:38:03;;;;;;;;;;;;;;;8.85;48.02;99888.56;5113085;27;19968;-76
2023/05/03 04:40:31;;;;;;;;;;;;;;;8.80;48.75;99905.72;5127619;27;19930;-76
2023/05/03 04:43:04;;;;;;;;;;;;;;;8.78;49.69;99880.63;5106790;27;19923;-76
2023/05/03 04:45:33;;;;;;;;;;;;;;;8.74;50.11;99893.94;5072470;27;19990;-76
2023/05/03 04:48:00;;;;;;;;;;;;;;;8.73;50.26;99918.72;5109270;27;20394;-77
2023/05/03 04:50:26;;;;;;;;;;;;;;;8.68;50.98;99922.25;5095697;27;19995;-76
2023/05/03 04:52:54;;;;;;;;;;;;;;;8.62;51.60;99928.72;4770793;27;10000545;-77
2023/05/03 04:55:22;;;;;;;;;;;;;;;8.50;51.61;99926.97;5087153;27;20415;-76
2023/05/03 04:57:48;;;;;;;;;;;;;;;8.42;52.38;99932.88;5107321;27;20242;-76
2023/05/03 05:00:15;;;;;;;;;;;;;;;8.44;53.34;99921.72;5119720;27;19923;-73
2023/05/03 05:02:45;;;;;;;;;;;;;;;8.44;54.00;99922.53;5102887;27;20013;-73
2023/05/03 05:05:13;;;;;;;;;;;;;;;8.40;53.78;99923.28;5098887;27;20446;-74
2023/05/03 05:07:38;;;;;;;;;;;;;;;8.42;53.96;99923.84;5074595;27;19930;-73
2023/05/03 05:10:07;;;;;;;;;;;;;;;8.48;53.99;99928.28;5107300;27;19923;-75
2023/05/03 05:12:33;;;;;;;;;;;;;;;8.55;54.08;99944.47;5080156;28;20088;-74
2023/05/03 05:15:03;;;;;;;;;;;;;;;8.67;54.20;99936.97;5101063;27;20432;-74
2023/05/03 05:17:29;;;;;;;;;;;;;;;8.77;54.14;99931.56;5082662;27;19923;-74
2023/05/03 05:19:55;;;;;;;;;;;;;;;8.77;54.06;99922.59;5105668;27;20524;-75
2023/05/03 05:22:21;;;;;;;;;;;;;;;8.84;53.89;99922.38;5069614;27;19924;-74
2023/05/03 05:24:52;;;;;;;;;;;;;;;8.84;53.78;99916.91;5098871;27;20089;-75
2023/05/03 05:27:23;;;;;;;;;;;;;;;8.91;54.29;99917.50;5082991;28;19945;-75
2023/05/03 05:29:52;;;;;;;;;;;;;;;9.00;54.13;99939.66;5077631;28;19931;-74
2023/05/03 05:32:19;;;;;;;;;;;;;;;9.11;54.08;99929.66;5081370;28;20440;-74
2023/05/03 05:34:51;;;;;;;;;;;;;;;9.13;54.23;99920.13;5089713;28;19924;-73
2023/05/03 05:37:18;;;;;;;;;;;;;;;9.00;54.54;99937.78;5084883;28;19931;-75
2023/05/03 05:39:45;;;;;;;;;;;;;;;8.98;54.86;99923.59;5079220;28;19924;-73
2023/05/03 05:42:12;;;;;;;;;;;;;;;9.10;54.82;99919.81;5081849;28;20412;-79
2023/05/03 05:44:40;;;;;;;;;;;;;;;9.24;54.42;99928.38;5092110;28;20018;-80
2023/05/03 05:47:07;;;;;;;;;;;;;;;9.30;54.18;99922.72;5078549;28;19928;-78
2023/05/03 05:49:33;;;;;;;;;;;;;;;9.44;53.78;99917.59;5065971;28;19932;-79
2023/05/03 05:52:00;;;;;;;;;;;;;;;9.68;53.29;99936.28;5078679;28;20471;-78
2023/05/03 05:54:26;;;;;;;;;;;;;;;9.80;52.78;99914.22;5069384;28;19927;-79
2023/05/03 05:56:52;;;;;;;;;;;;;;;9.96;52.16;99926.00;5078605;28;20026;-79
2023/05/03 05:59:18;;;;;;;;;;;;;;;10.18;51.81;99914.06;5096983;28;20015;-79
2023/05/03 06:01:46;;;;;;;;;;;;;;;10.52;51.22;99920.97;5086352;28;19923;-80
2023/05/03 06:04:15;;;;;;;;;;;;;;;10.79;50.79;99939.91;5096590;28;19923;-79
2023/05/03 06:06:41;;;;;;;;;;;;;;;10.92;50.16;99928.38;5087043;28;20035;-80
2023/05/03 06:09:07;;;;;;;;;;;;;;;10.86;50.11;99945.09;5096811;28;19955;-79
2023/05/03 06:11:33;;;;;;;;;;;;;;;10.88;49.89;99929.22;5093935;28;19923;-74
2023/05/03 06:14:02;;;;;;;;;;;;;;;10.89;49.80;99933.59;5107860;28;19931;-74
2023/05/03 06:16:29;;;;;;;;;;;;;;;10.91;50.10;99915.00;5087252;28;19924;-74
2023/05/03 06:18:57;;;;;;;;;;;;;;;11.10;49.49;99896.13;5108581;28;19923;-73
2023/05/03 06:21:23;;;;;;;;;;;;;;;11.35;48.46;99908.09;5092937;28;19923;-74
2023/05/03 06:23:49;;;;;;;;;;;;;;;11.64;47.58;99934.84;5107350;28;19931;-73
2023/05/03 06:26:16;;;;;;;;;;;;;;;11.71;47.31;99931.81;5100341;28;20227;-74
2023/05/03 06:28:44;;;;;;;;;;;;;;;11.77;46.88;99933.44;5097725;28;20425;-74
2023/05/03 06:31:11;;;;;;;;;;;;;;;11.57;46.99;99937.06;5086412;28;19977;-74
2023/05/03 06:33:37;;;;;;;;;;;;;;;11.37;47.90;99940.69;5103888;28;20205;-74
2023/05/03 06:36:07;;;;;;;;;;;;;;;11.39;48.09;99928.34;5109676;28;19930;-74
2023/05/03 06:38:33;;;;;;;;;;;;;;;11.49;47.68;99933.78;5109832;28;19943;-74
2023/05/03 06:40:58;;;;;;;;;;;;;;;11.54;46.95;99934.88;5109690;28;19924;-74
2023/05/03 06:43:24;;;;;;;;;;;;;;;11.54;46.99;99937.59;5094912;28;19970;-74
2023/05/03 06:46:00;;;;;;;;;;;;;;;11.43;46.73;99942.28;5092562;28;19924;-74
2023/05/03 06:48:26;;;;;;;;;;;;;;;11.49;46.60;99938.47;5109173;28;20023;-74
2023/05/03 06:50:55;;;;;;;;;;;;;;;11.69;46.63;99945.78;5109650;28;19930;-74
2023/05/03 06:53:22;;;;;;;;;;;;;;;11.94;45.93;99943.22;5113262;28;19924;-74
2023/05/03 06:55:48;;;;;;;;;;;;;;;12.23;45.42;99942.56;5093427;28;19934;-75
2023/05/03 06:58:15;;;;;;;;;;;;;;;12.51;45.02;99938.31;5109105;28;20455;-74
2023/05/03 07:00:41;;;;;;;;;;;;;;;12.82;44.61;99938.09;5108662;28;19923;-73
2023/05/03 07:03:07;;;;;;;;;;;;;;;13.03;43.77;99935.16;5110933;28;19931;-74
2023/05/03 07:05:33;;;;;;;;;;;;;;;12.93;43.90;99936.06;5092924;28;19969;-74
2023/05/03 07:07:59;;;;;;;;;;;;;;;12.82;44.49;99942.75;5112225;28;20383;-74
2023/05/03 07:10:29;;;;;;;;;;;;;;;12.92;44.42;99948.16;5110035;28;19923;-74
2023/05/03 07:12:55;;;;;;;;;;;;;;;12.86;44.29;99944.63;5109454;28;19924;-74
2023/05/03 07:15:21;;;;;;;;;;;;;;;12.78;44.96;99947.97;5110843;28;19976;-74
2023/05/03 07:17:47;;;;;;;;;;;;;;;12.78;44.94;99953.47;5110253;28;19923;-74
2023/05/03 07:20:13;;;;;;;;;;;;;;;12.55;45.65;99953.09;5108230;28;19973;-74
2023/05/03 07:22:38;;;;;;;;;;;;;;;12.51;45.64;99948.44;5110293;28;19924;-74
2023/05/03 07:25:05;;;;;;;;;;;;;;;12.56;45.55;99954.72;5109827;28;19923;-74
2023/05/03 07:27:32;;;;;;;;;;;;;;;12.61;45.68;99949.19;5073222;28;20469;-74
2023/05/03 07:29:59;;;;;;;;;;;;;;;12.71;45.54;99942.81;5106756;28;19928;-74
2023/05/03 07:32:25;;;;;;;;;;;;;;;12.91;45.22;99954.75;5119107;27;19930;-74
2023/05/03 07:34:51;;;;;;;;;;;;;;;13.09;44.89;99957.91;5130908;27;20481;-74
2023/05/03 07:37:17;;;;;;;;;;;;;;;13.26;44.57;99955.53;5111079;27;20022;-74
2023/05/03 07:39:44;;;;;;;;;;;;;;;13.43;44.27;99943.31;5128870;27;19923;-74
2023/05/03 07:42:09;;;;;;;;;;;;;;;13.36;44.28;99970.31;5112697;27;20383;-74
2023/05/03 07:44:37;;;;;;;;;;;;;;;13.24;44.44;99960.50;5114239;27;19929;-74
2023/05/03 07:47:03;;;;;;;;;;;;;;;13.22;45.01;99962.72;5135036;27;19927;-74
2023/05/03 07:49:29;;;;;;;;;;;;;;;13.26;44.98;99968.44;5131458;27;19930;-74
2023/05/03 07:51:57;;;;;;;;;;;;;;;13.26;45.09;99969.28;5130414;27;19923;-74
2023/05/03 07:54:23;;;;;;;;;;;;;;;13.29;45.25;99974.19;5112365;27;19930;-74
2023/05/03 07:56:49;;;;;;;;;;;;;;;13.24;45.27;99978.91;5129617;27;20298;-74
2023/05/03 07:59:15;;;;;;;;;;;;;;;13.43;45.49;99988.09;5111322;27;20339;-74
2023/05/03 08:01:42;;;;;;;;;;;;;;;13.84;43.76;99980.53;5109177;27;19957;-74
2023/05/03 08:04:08;;;;;;;;;;;;;;;13.90;43.78;99993.91;5130129;27;20022;-72
2023/05/03 08:06:34;;;;;;;;;;;;;;;13.93;43.91;100000.78;5093648;27;19959;-74
2023/05/03 08:09:00;;;;;;;;;;;;;;;13.86;43.89;99992.88;5098024;27;19962;-74
2023/05/03 08:11:27;;;;;;;;;;;;;;;13.73;44.20;99991.63;5093660;27;19923;-74
2023/05/03 08:13:53;;;;;;;;;;;;;;;13.73;43.88;100001.81;5093637;27;19993;-74
2023/05/03 08:16:19;;;;;;;;;;;;;;;13.63;44.08;99997.25;5128758;27;19923;-74
2023/05/03 08:18:46;;;;;;;;;;;;;;;13.29;44.53;99998.91;5112484;27;19923;-74
2023/05/03 08:21:13;;;;;;;;;;;;;;;13.04;45.31;100009.00;5094066;27;20026;-74
2023/05/03 08:23:39;;;;;;;;;;;;;;;12.96;45.83;100003.31;5111751;27;19934;-74
2023/05/03 08:26:08;;;;;;;;;;;;;;;12.86;45.84;100005.00;5111109;27;20317;-74
2023/05/03 08:28:34;;;;;;;;;;;;;;;12.79;46.13;100012.72;5111378;27;20397;-74
2023/05/03 08:31:03;;;;;;;;;;;;;;;12.66;46.18;100027.91;5110391;27;19954;-74
2023/05/03 08:33:29;;;;;;;;;;;;;;;12.54;46.40;100021.94;5111036;27;19948;-74
2023/05/03 08:35:56;;;;;;;;;;;;;;;12.52;46.52;100026.88;5129921;27;20330;-73
2023/05/03 08:38:22;;;;;;;;;;;;;;;12.52;46.81;100016.75;5114189;27;20433;-74
2023/05/03 08:40:50;;;;;;;;;;;;;;;12.56;47.17;100036.16;5112498;27;20283;-74
2023/05/03 08:43:18;;;;;;;;;;;;;;;12.57;47.63;100027.69;5127995;27;19931;-74
2023/05/03 08:45:45;;;;;;;;;;;;;;;12.62;47.62;100029.56;5129557;27;19955;-74
2023/05/03 08:48:12;;;;;;;;;;;;;;;12.65;47.74;100028.19;5111276;27;19965;-75
2023/05/03 08:50:41;;;;;;;;;;;;;;;12.65;47.08;100030.94;5128684;27;20327;-74
2023/05/03 08:53:09;;;;;;;;;;;;;;;12.57;47.41;100022.19;5091351;27;20370;-74
2023/05/03 08:55:34;;;;;;;;;;;;;;;12.59;47.75;100017.22;5121427;27;19927;-74
2023/05/03 08:58:01;;;;;;;;;;;;;;;12.83;47.45;100016.56;5111374;27;19930;-74
2023/05/03 09:00:28;;;;;;;;;;;;;;;13.08;46.95;100014.72;5109772;27;20400;-74
2023/05/03 09:02:54;;;;;;;;;;;;;;;13.16;46.41;100025.09;5108863;27;19927;-75
2023/05/03 09:05:33;;;;;;;;;;;;;;;13.10;46.86;100020.72;5129690;27;19930;-74
2023/05/03 09:08:03;;;;;;;;;;;;;;;12.79;48.00;100028.38;5101008;27;20033;-74
2023/05/03 09:10:30;;;;;;;;;;;;;;;12.45;49.81;100024.44;5129640;27;19930;-74
2023/05/03 09:12:58;;;;;;;;;;;;;;;12.06;50.93;100028.72;5109691;27;19923;-74
2023/05/03 09:15:25;;;;;;;;;;;;;;;11.77;52.20;100041.09;5129916;27;19924;-74
2023/05/03 09:18:05;;;;;;;;;;;;;;;11.51;53.62;100043.06;5111411;27;20355;-74
2023/05/03 09:20:33;;;;;;;;;;;;;;;11.31;55.15;100044.69;5127760;27;19923;-74
2023/05/03 09:23:00;;;;;;;;;;;;;;;11.10;56.98;100051.25;5109813;28;19953;-74
2023/05/03 09:25:40;;;;;;;;;;;;;;;10.88;58.41;100061.34;5094838;28;20360;-74
2023/05/03 09:28:05;;;;;;;;;;;;;;;10.75;59.37;100079.09;5108938;27;20287;-74
2023/05/03 09:30:31;;;;;;;;;;;;;;;10.64;60.69;100067.31;5125773;27;19931;-74
2023/05/03 09:32:57;;;;;;;;;;;;;;;10.61;60.76;100053.34;5128388;27;19933;-74
2023/05/03 09:35:23;;;;;;;;;;;;;;;10.65;61.08;100035.31;5129603;28;19923;-74
2023/05/03 09:37:50;;;;;;;;;;;;;;;10.64;60.89;100045.44;5129738;28;20517;-78
2023/05/03 09:40:17;;;;;;;;;;;;;;;10.57;60.56;100055.78;5115260;28;19976;-80
2023/05/03 09:43:03;;;;;;;;;;;;;;;10.62;60.43;100058.56;5113604;28;20339;-79
2023/05/03 09:45:30;;;;;;;;;;;;;;;10.80;60.26;100055.56;5114752;28;20370;-79
2023/05/03 09:47:56;;;;;;;;;;;;;;;10.99;59.98;100064.91;5136842;27;19943;-79
2023/05/03 09:50:23;;;;;;;;;;;;;;;11.24;59.07;100060.56;5135283;27;19923;-80
2023/05/03 09:52:49;;;;;;;;;;;;;;;11.38;59.24;100063.56;5100319;27;20141;-79
2023/05/03 09:55:16;;;;;;;;;;;;;;;11.49;59.08;100064.41;5137908;27;20429;-79
2023/05/03 09:57:42;;;;;;;;;;;;;;;11.51;58.98;100064.97;5121729;27;19923;-79
2023/05/03 10:00:12;;;;;;;;;;;;;;;11.52;58.82;100063.84;5121290;27;19923;-79
2023/05/03 10:02:40;;;;;;;;;;;;;;;11.52;59.14;100063.03;5119690;27;19923;-78
2023/05/03 10:05:07;;;;;;;;;;;;;;;11.65;59.12;100061.66;5137043;27;20018;-79
2023/05/03 10:07:33;;;;;;;;;;;;;;;12.08;58.66;100062.13;5123559;27;20408;-80
2023/05/03 10:09:59;;;;;;;;;;;;;;;12.81;56.81;100054.44;5136339;27;20324;-79
2023/05/03 10:12:26;;;;;;;;;;;;;;;13.81;54.54;100069.88;5136652;27;19987;-79
2023/05/03 10:14:53;;;;;;;;;;;;;;;14.11;52.81;100067.91;5119972;27;19954;-79
2023/05/03 10:17:25;;;;;;;;;;;;;;;13.78;53.16;100075.94;5121636;27;19923;-80
2023/05/03 10:19:52;;;;;;;;;;;;;;;13.10;54.06;100069.34;5085146;27;20392;-79
2023/05/03 10:22:17;;;;;;;;;;;;;;;12.71;55.33;100062.72;5119261;27;19984;-78
2023/05/03 10:25:02;;;;;;;;;;;;;;;12.56;56.17;100063.59;5136524;27;19923;-79
2023/05/03 10:27:36;;;;;;;;;;;;;;;12.59;56.04;100057.56;5144063;27;19963;-80
2023/05/03 10:30:02;;;;;;;;;;;;;;;12.55;56.03;100057.31;5144985;27;19923;-79
2023/05/03 10:32:34;;;;;;;;;;;;;;;12.65;56.16;100067.41;5115502;28;20366;-80
2023/05/03 10:35:02;;;;;;;;;;;;;;;12.87;56.18;100063.44;5113534;28;19958;-80
2023/05/03 10:37:29;;;;;;;;;;;;;;;12.96;55.98;100058.19;5117904;28;20370;-80
2023/05/03 10:39:55;;;;;;;;;;;;;;;12.98;55.68;100061.47;5115630;28;20030;-80
2023/05/03 10:42:22;;;;;;;;;;;;;;;12.60;56.04;100054.53;5116755;28;19949;-79
2023/05/03 10:44:51;;;;;;;;;;;;;;;12.38;56.42;100071.34;5118332;28;19931;-80
2023/05/03 10:47:18;;;;;;;;;;;;;;;12.24;57.31;100082.13;5117536;27;20379;-80
2023/05/03 10:49:45;;;;;;;;;;;;;;;12.27;57.31;100065.09;5118559;28;19924;-80
2023/05/03 10:52:30;;;;;;;;;;;;;;;12.48;56.73;100070.50;5115818;28;20563;-79
2023/05/03 10:54:55;;;;;;;;;;;;;;;12.50;56.31;100067.47;5114387;28;19920;-79
2023/05/03 10:57:26;;;;;;;;;;;;;;;12.69;55.78;100071.22;5114909;28;19930;-80
2023/05/03 10:59:53;;;;;;;;;;;;;;;12.91;55.19;100062.59;5113775;28;20022;-80
2023/05/03 11:02:23;;;;;;;;;;;;;;;13.15;54.62;100064.63;5113005;28;19924;-79
2023/05/03 11:04:51;;;;;;;;;;;;;;;13.39;53.74;100063.88;5118373;28;19930;-80
2023/05/03 11:07:20;;;;;;;;;;;;;;;13.58;52.79;100069.53;5117415;28;19923;-79
2023/05/03 11:09:46;;;;;;;;;;;;;;;14.72;49.99;100061.97;5114737;28;19923;-80
2023/05/03 11:12:12;;;;;;;;;;;;;;;17.01;45.50;100060.31;5116976;27;19924;-81
2023/05/03 11:14:39;;;;;;;;;;;;;;;19.04;40.25;100052.91;5117875;28;19923;-80
2023/05/03 11:17:04;;;;;;;;;;;;;;;19.88;38.78;100049.03;5112428;28;19924;-80
2023/05/03 11:19:30;;;;;;;;;;;;;;;20.28;37.61;100053.47;5113937;28;20003;-80
2023/05/03 11:21:58;;;;;;;;;;;;;;;20.64;36.82;100062.41;5112142;28;20405;-79
2023/05/03 11:24:23;;;;;;;;;;;;;;;19.77;37.59;100054.13;5095724;28;20360;-80
2023/05/03 11:26:49;;;;;;;;;;;;;;;18.89;39.14;100048.66;5112679;28;19924;-80
2023/05/03 11:29:16;;;;;;;;;;;;;;;18.58;38.76;100055.13;5117197;27;20333;-80
2023/05/03 11:31:42;;;;;;;;;;;;;;;18.59;38.63;100078.91;5118034;27;20760;-79
2023/05/03 11:34:08;;;;;;;;;;;;;;;18.51;38.84;100046.50;5086772;28;19923;-79
2023/05/03 11:36:34;;;;;;;;;;;;;;;19.39;37.38;100049.31;5127512;27;19930;-80
2023/05/03 11:39:04;;;;;;;;;;;;;;;19.50;37.28;100056.16;5121492;27;19923;-80
2023/05/03 11:41:30;;;;;;;;;;;;;;;19.46;37.00;100027.47;5112919;27;19923;-80
2023/05/03 11:43:56;;;;;;;;;;;;;;;19.29;36.95;100033.03;5132734;27;19969;-80
2023/05/03 11:46:24;;;;;;;;;;;;;;;19.30;36.86;100041.00;5136206;27;19923;-79
2023/05/03 11:48:49;;;;;;;;;;;;;;;20.04;35.81;100040.19;5128832;27;19924;-80
2023/05/03 11:51:20;;;;;;;;;;;;;;;19.58;35.44;100064.75;5103178;27;20198;-79
2023/05/03 11:53:47;;;;;;;;;;;;;;;18.69;37.37;100023.22;5114946;27;19927;-79
2023/05/03 11:56:17;;;;;;;;;;;;;;;19.88;35.46;100024.06;5082524;27;20018;-80
2023/05/03 11:58:51;;;;;;;;;;;;;;;20.07;34.97;100028.41;5076818;28;19995;-80
2023/05/03 12:01:17;;;;;;;;;;;;;;;20.73;33.86;100020.66;5132917;27;20011;-80
2023/05/03 12:03:46;;;;;;;;;;;;;;;19.82;35.20;100047.56;5100098;27;20066;-80
2023/05/03 12:06:13;;;;;;;;;;;;;;;20.33;34.55;100035.81;5101493;28;19927;-80
2023/05/03 12:08:38;;;;;;;;;;;;;;;20.77;33.97;100033.56;5083574;28;19930;-80
2023/05/03 12:11:05;;;;;;;;;;;;;;;21.26;32.62;100034.97;5096228;28;19923;-79
2023/05/03 12:13:36;;;;;;;;;;;;;;;19.73;35.24;100033.72;5115042;28;19932;-80
2023/05/03 12:16:03;;;;;;;;;;;;;;;18.79;36.68;100052.56;5093238;27;19924;-79
2023/05/03 12:18:44;;;;;;;;;;;;;;;18.83;36.68;100031.38;5128141;27;19976;-79
2023/05/03 12:21:11;;;;;;;;;;;;;;;19.40;35.47;100040.66;5095660;27;19930;-79
2023/05/03 12:23:37;;;;;;;;;;;;;;;17.93;37.78;100061.06;5094249;27;19931;-79
2023/05/03 12:26:02;;;;;;;;;;;;;;;16.68;40.14;100052.19;5133757;27;20460;-79
2023/05/03 12:28:28;;;;;;;;;;;;;;;16.07;41.78;100057.88;5130353;27;20433;-79
2023/05/03 12:30:55;;;;;;;;;;;;;;;15.69;42.75;100056.03;5111752;27;19930;-78
2023/05/03 12:33:21;;;;;;;;;;;;;;;15.51;43.11;100049.47;5129837;27;20018;-80
2023/05/03 12:35:47;;;;;;;;;;;;;;;16.30;41.86;100050.50;5114666;27;19946;-79
2023/05/03 12:38:13;;;;;;;;;;;;;;;16.31;41.45;100040.28;5131941;27;19927;-78
2023/05/03 12:40:39;;;;;;;;;;;;;;;16.01;42.21;100032.31;5113134;27;20763;-79
2023/05/03 12:43:05;;;;;;;;;;;;;;;17.84;39.20;100047.19;5130004;27;19923;-80
2023/05/03 12:45:31;;;;;;;;;;;;;;;20.12;35.26;100039.31;5095916;27;19930;-80
2023/05/03 12:47:58;;;;;;;;;;;;;;;21.81;31.95;100029.31;5130744;27;19923;-80